sensor_id;sensor_type;location;lat;lon;timestamp;pressure;altitude;pressure_sealevel;temperature;humidity
62152;BME280;48139;47.474;19.034;2023-04-28T03:44:13;100996.06;;;5.39;97.46
62152;BME280;48139;47.474;19.034;2023-04-28T03:47:16;100996.06;;;5.39;97.46
62152;BME280;48139;47.474;19.034;2023-04-28T03:50:19;100994.22;;;4.88;100.00
62152;BME280;48139;47.474;19.034;2023-04-28T03:53:22;101001.19;;;4.86;100.00
62152;BME280;48139;47.474;19.034;2023-04-28T03:56:25;101002.06;;;4.84;100.00
62152;BME280;48139;47.474;19.034;2023-04-28T03:59:28;101004.66;;;4.85;100.00
62152;BME280;48139;47.474;19.034;2023-04-28T04:02:31;101000.28;;;4.87;100.00
62152;BME280;48139;47.474;19.034;2023-04-28T04:05:34;101009.78;;;4.92;100.00
62152;BME280;48139;47.474;19.034;2023-04-28T04:08:36;101001.09;;;4.93;99.81
62152;BME280;48139;47.474;19.034;2023-04-28T04:11:39;101001.88;;;4.99;100.00
62152;BME280;48139;47.474;19.034;2023-04-28T04:14:42;101008.56;;;5.15;95.79
62152;BME280;48139;47.474;19.034;2023-04-28T04:17:45;101009.31;;;5.23;95.87
62152;BME280;48139;47.474;19.034;2023-04-28T04:20:48;101008.25;;;5.37;96.43
62152;BME280;48139;47.474;19.034;2023-04-28T04:23:52;101015.91;;;5.44;95.40
62152;BME280;48139;47.474;19.034;2023-04-28T04:26:54;101013.09;;;5.58;94.79
62152;BME280;48139;47.474;19.034;2023-04-28T04:29:57;101021.56;;;5.71;92.21
62152;BME280;48139;47.474;19.034;2023-04-28T04:33:00;101028.25;;;5.84;93.20
62152;BME280;48139;47.474;19.034;2023-04-28T04:36:03;101023.84;;;5.92;92.03
62152;BME280;48139;47.474;19.034;2023-04-28T04:39:07;101020.16;;;6.02;93.26
62152;BME280;48139;47.474;19.034;2023-04-28T04:42:10;101015.59;;;6.15;92.09
62152;BME280;48139;47.474;19.034;2023-04-28T04:45:27;101012.72;;;6.30;90.02
62152;BME280;48139;47.474;19.034;2023-04-28T04:48:30;101018.47;;;6.45;90.79
62152;BME280;48139;47.474;19.034;2023-04-28T04:51:33;101016.56;;;6.55;91.95
62152;BME280;48139;47.474;19.034;2023-04-28T04:54:36;101008.28;;;6.78;85.41
62152;BME280;48139;47.474;19.034;2023-04-28T04:57:38;101018.12;;;7.05;82.10
62152;BME280;48139;47.474;19.034;2023-04-28T05:00:42;101012.25;;;7.33;80.71
62152;BME280;48139;47.474;19.034;2023-04-28T05:03:44;101018.16;;;7.41;78.25
62152;BME280;48139;47.474;19.034;2023-04-28T05:06:48;101017.03;;;7.51;77.16
62152;BME280;48139;47.474;19.034;2023-04-28T05:09:51;101011.75;;;7.54;75.41
62152;BME280;48139;47.474;19.034;2023-04-28T05:12:55;101011.59;;;7.61;73.42
62152;BME280;48139;47.474;19.034;2023-04-28T05:15:57;101011.22;;;7.75;72.69
62152;BME280;48139;47.474;19.034;2023-04-28T05:19:01;101016.22;;;7.84;72.20
62152;BME280;48139;47.474;19.034;2023-04-28T05:22:04;101014.81;;;8.05;70.92
62152;BME280;48139;47.474;19.034;2023-04-28T05:25:09;101017.34;;;8.40;68.82
62152;BME280;48139;47.474;19.034;2023-04-28T05:28:12;101024.78;;;8.56;65.03
62152;BME280;48139;47.474;19.034;2023-04-28T05:31:15;101028.38;;;8.50;64.40
62152;BME280;48139;47.474;19.034;2023-04-28T05:34:18;101025.19;;;8.71;63.21
62152;BME280;48139;47.474;19.034;2023-04-28T05:37:21;101023.69;;;9.21;64.14
62152;BME280;48139;47.474;19.034;2023-04-28T05:40:25;101028.91;;;9.76;60.11
62152;BME280;48139;47.474;19.034;2023-04-28T05:43:29;101028.34;;;9.92;58.86
62152;BME280;48139;47.474;19.034;2023-04-28T05:46:32;101025.00;;;9.87;60.05
62152;BME280;48139;47.474;19.034;2023-04-28T05:49:36;101024.31;;;10.08;61.28
62152;BME280;48139;47.474;19.034;2023-04-28T05:52:39;101028.28;;;10.20;60.62
62152;BME280;48139;47.474;19.034;2023-04-28T05:55:42;101031.50;;;10.02;60.62
62152;BME280;48139;47.474;19.034;2023-04-28T05:58:45;101040.37;;;9.98;61.02
62152;BME280;48139;47.474;19.034;2023-04-28T06:01:49;101037.72;;;9.73;62.69
62152;BME280;48139;47.474;19.034;2023-04-28T06:04:52;101034.66;;;9.60;62.19
62152;BME280;48139;47.474;19.034;2023-04-28T06:07:55;101032.56;;;9.70;62.35
62152;BME280;48139;47.474;19.034;2023-04-28T06:10:58;101039.47;;;9.99;60.73
62152;BME280;48139;47.474;19.034;2023-04-28T06:14:00;101037.13;;;10.18;59.87
62152;BME280;48139;47.474;19.034;2023-04-28T06:17:03;101036.13;;;10.45;58.48
62152;BME280;48139;47.474;19.034;2023-04-28T06:20:08;101042.56;;;10.61;57.52
62152;BME280;48139;47.474;19.034;2023-04-28T06:23:12;101046.34;;;10.76;56.67
62152;BME280;48139;47.474;19.034;2023-04-28T06:26:16;101036.41;;;10.85;55.36
62152;BME280;48139;47.474;19.034;2023-04-28T06:29:20;101035.56;;;11.07;53.98
62152;BME280;48139;47.474;19.034;2023-04-28T06:32:25;101034.63;;;11.09;53.49
62152;BME280;48139;47.474;19.034;2023-04-28T06:35:28;101036.84;;;10.97;55.93
62152;BME280;48139;47.474;19.034;2023-04-28T06:38:32;101035.72;;;11.04;55.98
62152;BME280;48139;47.474;19.034;2023-04-28T06:41:35;101039.56;;;11.17;54.54
62152;BME280;48139;47.474;19.034;2023-04-28T06:44:39;101043.81;;;11.43;55.07
62152;BME280;48139;47.474;19.034;2023-04-28T06:47:41;101047.97;;;11.68;54.29
62152;BME280;48139;47.474;19.034;2023-04-28T06:50:44;101043.56;;;11.92;51.81
62152;BME280;48139;47.474;19.034;2023-04-28T06:53:47;101042.62;;;12.13;50.16
62152;BME280;48139;47.474;19.034;2023-04-28T06:56:52;101044.31;;;11.94;50.54
62152;BME280;48139;47.474;19.034;2023-04-28T06:59:59;101036.28;;;11.99;51.47
62152;BME280;48139;47.474;19.034;2023-04-28T07:03:01;101042.28;;;12.01;48.37
62152;BME280;48139;47.474;19.034;2023-04-28T07:06:04;101036.94;;;12.04;49.33
62152;BME280;48139;47.474;19.034;2023-04-28T07:09:07;101031.91;;;12.18;49.41
62152;BME280;48139;47.474;19.034;2023-04-28T07:12:10;101025.41;;;12.47;48.08
62152;BME280;48139;47.474;19.034;2023-04-28T07:15:15;101030.66;;;12.67;46.65
62152;BME280;48139;47.474;19.034;2023-04-28T07:18:19;101026.53;;;12.80;45.46
62152;BME280;48139;47.474;19.034;2023-04-28T07:21:21;101024.09;;;12.76;46.08
62152;BME280;48139;47.474;19.034;2023-04-28T07:24:24;101024.81;;;12.61;47.63
62152;BME280;48139;47.474;19.034;2023-04-28T07:27:28;101022.78;;;12.86;46.66
62152;BME280;48139;47.474;19.034;2023-04-28T07:30:31;101023.00;;;13.19;44.45
62152;BME280;48139;47.474;19.034;2023-04-28T07:33:33;101025.25;;;13.45;43.50
62152;BME280;48139;47.474;19.034;2023-04-28T07:36:36;101020.72;;;13.49;44.98
62152;BME280;48139;47.474;19.034;2023-04-28T07:39:39;101017.84;;;13.53;43.61
62152;BME280;48139;47.474;19.034;2023-04-28T07:42:43;101021.09;;;13.58;44.43
62152;BME280;48139;47.474;19.034;2023-04-28T07:45:46;101020.66;;;13.67;44.43
62152;BME280;48139;47.474;19.034;2023-04-28T07:48:50;101011.97;;;13.65;43.31
62152;BME280;48139;47.474;19.034;2023-04-28T07:51:52;101015.94;;;14.08;42.37
62152;BME280;48139;47.474;19.034;2023-04-28T07:54:58;101007.25;;;14.06;42.23
62152;BME280;48139;47.474;19.034;2023-04-28T07:58:00;101005.47;;;14.07;42.42
62152;BME280;48139;47.474;19.034;2023-04-28T08:01:03;100995.94;;;14.22;42.59
62152;BME280;48139;47.474;19.034;2023-04-28T08:04:06;100996.53;;;14.27;42.59
62152;BME280;48139;47.474;19.034;2023-04-28T08:07:09;100989.41;;;14.46;40.97
62152;BME280;48139;47.474;19.034;2023-04-28T08:10:12;100984.78;;;14.82;40.58
62152;BME280;48139;47.474;19.034;2023-04-28T08:13:15;100985.97;;;14.77;39.55
62152;BME280;48139;47.474;19.034;2023-04-28T08:16:18;100978.25;;;14.74;39.83
62152;BME280;48139;47.474;19.034;2023-04-28T08:19:21;100972.72;;;14.78;38.95
62152;BME280;48139;47.474;19.034;2023-04-28T08:22:24;100966.91;;;14.72;38.41
62152;BME280;48139;47.474;19.034;2023-04-28T08:25:27;100964.03;;;14.76;37.62
62152;BME280;48139;47.474;19.034;2023-04-28T08:28:30;100960.75;;;14.56;39.04
62152;BME280;48139;47.474;19.034;2023-04-28T08:31:34;100955.59;;;14.70;37.54
62152;BME280;48139;47.474;19.034;2023-04-28T08:34:36;100947.19;;;14.94;38.30
62152;BME280;48139;47.474;19.034;2023-04-28T08:37:39;100953.31;;;14.95;37.24
62152;BME280;48139;47.474;19.034;2023-04-28T08:40:42;100944.88;;;14.88;36.17
62152;BME280;48139;47.474;19.034;2023-04-28T08:43:45;100941.75;;;14.98;36.63
62152;BME280;48139;47.474;19.034;2023-04-28T08:46:48;100944.91;;;15.04;37.32
62152;BME280;48139;47.474;19.034;2023-04-28T08:49:52;100946.75;;;15.02;37.53
62152;BME280;48139;47.474;19.034;2023-04-28T08:52:57;100943.66;;;15.25;36.47
62152;BME280;48139;47.474;19.034;2023-04-28T08:56:05;100938.13;;;15.30;36.57
62152;BME280;48139;47.474;19.034;2023-04-28T08:59:08;100933.25;;;15.38;36.20
62152;BME280;48139;47.474;19.034;2023-04-28T09:02:10;100939.13;;;15.59;35.17
62152;BME280;48139;47.474;19.034;2023-04-28T09:05:13;100938.75;;;15.65;36.05
62152;BME280;48139;47.474;19.034;2023-04-28T09:08:17;100932.66;;;15.79;36.11
62152;BME280;48139;47.474;19.034;2023-04-28T09:11:20;100934.03;;;16.14;35.14
62152;BME280;48139;47.474;19.034;2023-04-28T09:14:23;100934.50;;;16.21;34.30
62152;BME280;48139;47.474;19.034;2023-04-28T09:17:25;100939.88;;;16.33;34.65
62152;BME280;48139;47.474;19.034;2023-04-28T09:20:30;100926.84;;;16.59;34.52
62152;BME280;48139;47.474;19.034;2023-04-28T09:23:34;100930.06;;;16.64;33.48
62152;BME280;48139;47.474;19.034;2023-04-28T09:26:48;100937.72;;;16.68;34.81
62152;BME280;48139;47.474;19.034;2023-04-28T09:29:56;100929.97;;;16.79;35.01
62152;BME280;48139;47.474;19.034;2023-04-28T09:33:05;100931.53;;;16.96;33.51
62152;BME280;48139;47.474;19.034;2023-04-28T09:36:10;100923.59;;;16.96;33.70
62152;BME280;48139;47.474;19.034;2023-04-28T09:39:13;100940.06;;;17.14;32.75
62152;BME280;48139;47.474;19.034;2023-04-28T09:42:36;100926.66;;;17.17;32.71
62152;BME280;48139;47.474;19.034;2023-04-28T09:45:44;100932.72;;;17.31;32.89
62152;BME280;48139;47.474;19.034;2023-04-28T09:48:47;100915.47;;;17.65;31.25
62152;BME280;48139;47.474;19.034;2023-04-28T09:51:49;100919.44;;;18.10;32.61
62152;BME280;48139;47.474;19.034;2023-04-28T09:54:54;100899.56;;;17.65;32.44
62152;BME280;48139;47.474;19.034;2023-04-28T09:57:59;100903.72;;;17.82;32.12
62152;BME280;48139;47.474;19.034;2023-04-28T10:01:08;100905.75;;;17.79;31.48
62152;BME280;48139;47.474;19.034;2023-04-28T10:04:15;100896.28;;;17.87;31.00
62152;BME280;48139;47.474;19.034;2023-04-28T10:07:20;100889.72;;;18.05;31.25
62152;BME280;48139;47.474;19.034;2023-04-28T10:10:23;100890.53;;;18.44;31.31
62152;BME280;48139;47.474;19.034;2023-04-28T10:13:26;100885.06;;;18.22;31.51
62152;BME280;48139;47.474;19.034;2023-04-28T10:16:30;100878.22;;;18.30;31.53
62152;BME280;48139;47.474;19.034;2023-04-28T10:19:34;100870.16;;;18.32;32.80
62152;BME280;48139;47.474;19.034;2023-04-28T10:26:12;100854.94;;;18.23;31.74
62152;BME280;48139;47.474;19.034;2023-04-28T10:29:15;100859.56;;;18.32;31.39
62152;BME280;48139;47.474;19.034;2023-04-28T10:32:24;100848.44;;;18.27;31.26
62152;BME280;48139;47.474;19.034;2023-04-28T10:38:34;100840.75;;;18.11;31.42
62152;BME280;48139;47.474;19.034;2023-04-28T10:41:38;100839.00;;;18.35;32.25
62152;BME280;48139;47.474;19.034;2023-04-28T10:44:40;100836.13;;;18.26;31.39
62152;BME280;48139;47.474;19.034;2023-04-28T10:48:10;100830.50;;;18.30;31.62
62152;BME280;48139;47.474;19.034;2023-04-28T10:54:18;100819.78;;;18.32;32.08
62152;BME280;48139;47.474;19.034;2023-04-28T10:57:21;100823.13;;;18.46;31.74
62152;BME280;48139;47.474;19.034;2023-04-28T11:00:28;100811.38;;;18.74;31.89
62152;BME280;48139;47.474;19.034;2023-04-28T11:07:10;100814.53;;;18.56;30.71
62152;BME280;48139;47.474;19.034;2023-04-28T11:10:14;100809.84;;;18.23;31.69
62152;BME280;48139;47.474;19.034;2023-04-28T11:13:26;100794.13;;;18.20;31.61
62152;BME280;48139;47.474;19.034;2023-04-28T11:16:30;100804.38;;;18.37;32.42
62152;BME280;48139;47.474;19.034;2023-04-28T11:19:41;100798.88;;;17.91;31.82
62152;BME280;48139;47.474;19.034;2023-04-28T11:22:43;100794.72;;;17.74;31.77
62152;BME280;48139;47.474;19.034;2023-04-28T11:25:53;100793.47;;;17.80;32.33
62152;BME280;48139;47.474;19.034;2023-04-28T11:28:56;100789.97;;;17.79;32.60
62152;BME280;48139;47.474;19.034;2023-04-28T11:32:04;100789.63;;;17.58;33.07
62152;BME280;48139;47.474;19.034;2023-04-28T11:35:07;100795.38;;;17.65;32.87
62152;BME280;48139;47.474;19.034;2023-04-28T11:38:11;100791.09;;;17.50;33.26
62152;BME280;48139;47.474;19.034;2023-04-28T11:41:13;100796.63;;;17.47;33.47
62152;BME280;48139;47.474;19.034;2023-04-28T11:44:18;100793.31;;;17.30;32.72
62152;BME280;48139;47.474;19.034;2023-04-28T11:47:33;100791.84;;;17.26;33.09
62152;BME280;48139;47.474;19.034;2023-04-28T11:50:37;100788.12;;;17.16;33.87
62152;BME280;48139;47.474;19.034;2023-04-28T11:53:43;100787.81;;;17.33;34.42
62152;BME280;48139;47.474;19.034;2023-04-28T11:56:46;100785.06;;;17.35;33.30
62152;BME280;48139;47.474;19.034;2023-04-28T11:59:49;100769.19;;;17.48;33.28
62152;BME280;48139;47.474;19.034;2023-04-28T12:02:52;100768.78;;;17.66;33.69
62152;BME280;48139;47.474;19.034;2023-04-28T12:05:55;100771.31;;;17.68;33.63
62152;BME280;48139;47.474;19.034;2023-04-28T12:09:00;100769.84;;;17.64;33.65
62152;BME280;48139;47.474;19.034;2023-04-28T12:12:08;100754.56;;;17.42;32.96
62152;BME280;48139;47.474;19.034;2023-04-28T12:15:11;100762.53;;;17.42;33.11
62152;BME280;48139;47.474;19.034;2023-04-28T12:18:14;100755.63;;;17.27;34.17
62152;BME280;48139;47.474;19.034;2023-04-28T12:21:20;100760.16;;;17.25;34.31
62152;BME280;48139;47.474;19.034;2023-04-28T12:24:23;100747.06;;;17.36;33.87
62152;BME280;48139;47.474;19.034;2023-04-28T12:27:28;100747.16;;;17.22;33.70
62152;BME280;48139;47.474;19.034;2023-04-28T12:30:32;100749.37;;;17.15;34.10
62152;BME280;48139;47.474;19.034;2023-04-28T12:33:35;100745.97;;;17.26;34.62
62152;BME280;48139;47.474;19.034;2023-04-28T12:36:42;100740.16;;;17.46;35.20
62152;BME280;48139;47.474;19.034;2023-04-28T12:39:47;100737.81;;;17.54;34.20
62152;BME280;48139;47.474;19.034;2023-04-28T12:42:50;100726.81;;;17.35;34.60
62152;BME280;48139;47.474;19.034;2023-04-28T12:45:53;100716.75;;;17.53;35.13
62152;BME280;48139;47.474;19.034;2023-04-28T12:48:56;100704.03;;;17.45;34.16
62152;BME280;48139;47.474;19.034;2023-04-28T12:51:59;100699.25;;;17.25;35.16
62152;BME280;48139;47.474;19.034;2023-04-28T12:55:03;100694.59;;;17.41;35.52
62152;BME280;48139;47.474;19.034;2023-04-28T12:58:05;100678.38;;;17.58;34.64
62152;BME280;48139;47.474;19.034;2023-04-28T13:01:08;100681.56;;;17.63;35.06
62152;BME280;48139;47.474;19.034;2023-04-28T13:04:11;100665.53;;;17.78;35.17
62152;BME280;48139;47.474;19.034;2023-04-28T13:07:14;100650.37;;;17.80;34.76
62152;BME280;48139;47.474;19.034;2023-04-28T13:10:17;100640.34;;;18.20;34.67
62152;BME280;48139;47.474;19.034;2023-04-28T13:13:25;100638.75;;;18.76;34.15
62152;BME280;48139;47.474;19.034;2023-04-28T13:16:28;100644.94;;;18.52;32.75
62152;BME280;48139;47.474;19.034;2023-04-28T13:19:32;100635.75;;;18.45;33.34
62152;BME280;48139;47.474;19.034;2023-04-28T13:22:35;100642.56;;;18.37;34.06
62152;BME280;48139;47.474;19.034;2023-04-28T13:25:38;100646.78;;;18.63;33.31
62152;BME280;48139;47.474;19.034;2023-04-28T13:28:41;100638.66;;;18.88;33.15
62152;BME280;48139;47.474;19.034;2023-04-28T13:31:44;100640.94;;;18.93;32.89
62152;BME280;48139;47.474;19.034;2023-04-28T13:34:46;100641.75;;;18.60;32.83
62152;BME280;48139;47.474;19.034;2023-04-28T13:37:50;100639.22;;;18.35;33.50
62152;BME280;48139;47.474;19.034;2023-04-28T13:40:56;100638.66;;;17.95;33.46
62152;BME280;48139;47.474;19.034;2023-04-28T13:43:59;100635.12;;;17.58;34.60
62152;BME280;48139;47.474;19.034;2023-04-28T13:47:02;100640.72;;;17.29;34.95
62152;BME280;48139;47.474;19.034;2023-04-28T13:50:06;100630.44;;;17.12;35.35
62152;BME280;48139;47.474;19.034;2023-04-28T13:53:09;100636.91;;;17.21;35.99
62152;BME280;48139;47.474;19.034;2023-04-28T13:56:12;100628.19;;;17.31;35.79
62152;BME280;48139;47.474;19.034;2023-04-28T13:59:14;100615.44;;;17.49;35.04
62152;BME280;48139;47.474;19.034;2023-04-28T14:02:17;100603.41;;;17.32;35.21
62152;BME280;48139;47.474;19.034;2023-04-28T14:05:20;100592.78;;;17.45;36.15
62152;BME280;48139;47.474;19.034;2023-04-28T14:08:23;100596.25;;;17.71;35.37
62152;BME280;48139;47.474;19.034;2023-04-28T14:11:29;100579.87;;;18.01;35.36
62152;BME280;48139;47.474;19.034;2023-04-28T14:14:32;100579.34;;;17.85;34.74
62152;BME280;48139;47.474;19.034;2023-04-28T14:17:34;100592.75;;;17.70;35.37
62152;BME280;48139;47.474;19.034;2023-04-28T14:20:37;100580.78;;;17.65;35.18
62152;BME280;48139;47.474;19.034;2023-04-28T14:23:44;100581.62;;;17.65;35.68
62152;BME280;48139;47.474;19.034;2023-04-28T14:26:47;100574.25;;;17.82;36.27
62152;BME280;48139;47.474;19.034;2023-04-28T14:29:51;100575.06;;;17.58;35.79
62152;BME280;48139;47.474;19.034;2023-04-28T14:32:53;100577.69;;;17.58;36.07
62152;BME280;48139;47.474;19.034;2023-04-28T14:35:56;100564.78;;;17.66;36.35
62152;BME280;48139;47.474;19.034;2023-04-28T14:38:59;100575.41;;;17.54;37.32
62152;BME280;48139;47.474;19.034;2023-04-28T14:42:02;100568.91;;;17.58;37.32
62152;BME280;48139;47.474;19.034;2023-04-28T14:45:06;100564.34;;;17.72;36.63
62152;BME280;48139;47.474;19.034;2023-04-28T14:48:10;100569.66;;;17.60;36.50
62152;BME280;48139;47.474;19.034;2023-04-28T14:51:14;100564.88;;;17.28;36.87
62152;BME280;48139;47.474;19.034;2023-04-28T14:54:17;100557.88;;;17.27;37.04
62152;BME280;48139;47.474;19.034;2023-04-28T14:57:20;100557.34;;;17.35;37.62
62152;BME280;48139;47.474;19.034;2023-04-28T15:00:23;100553.50;;;17.39;37.15
62152;BME280;48139;47.474;19.034;2023-04-28T15:03:25;100547.75;;;17.45;37.63
62152;BME280;48139;47.474;19.034;2023-04-28T15:06:29;100550.34;;;17.34;37.20
62152;BME280;48139;47.474;19.034;2023-04-28T15:09:33;100543.47;;;17.31;37.01
62152;BME280;48139;47.474;19.034;2023-04-28T15:12:36;100541.44;;;17.35;37.96
62152;BME280;48139;47.474;19.034;2023-04-28T15:15:39;100542.69;;;17.42;37.25
62152;BME280;48139;47.474;19.034;2023-04-28T15:18:42;100537.84;;;17.36;38.54
62152;BME280;48139;47.474;19.034;2023-04-28T15:21:45;100534.22;;;17.37;38.42
62152;BME280;48139;47.474;19.034;2023-04-28T15:24:49;100535.06;;;17.38;37.99
62152;BME280;48139;47.474;19.034;2023-04-28T15:27:52;100524.47;;;17.38;37.94
62152;BME280;48139;47.474;19.034;2023-04-28T15:30:54;100523.12;;;17.32;38.42
